createdAt,value
2023-06-09T00:00:20.109Z,81.39
2023-06-09T00:01:20.195Z,81.29
2023-06-09T00:02:20.100Z,81.81
2023-06-09T00:03:20.154Z,81.91
2023-06-09T00:04:20.067Z,81.09
2023-06-09T00:05:20.001Z,82.63
2023-06-09T00:06:19.975Z,82.05
2023-06-09T00:07:19.997Z,82.46
2023-06-09T00:08:20.811Z,82.87
2023-06-09T00:09:19.990Z,82.67
2023-06-09T00:10:19.937Z,83.07
2023-06-09T00:11:19.933Z,83.39
2023-06-09T00:12:19.916Z,83.39
2023-06-09T00:13:20.201Z,83.63
2023-06-09T00:14:19.876Z,84.35
2023-06-09T00:15:19.882Z,83.94
2023-06-09T00:16:19.898Z,84.45
2023-06-09T00:17:19.994Z,85.42
2023-06-09T00:18:19.838Z,85.01
2023-06-09T00:19:19.915Z,85.01
2023-06-09T00:20:19.828Z,85.73
2023-06-09T00:21:19.872Z,86.45
2023-06-09T00:22:19.807Z,86.55
2023-06-09T00:23:19.778Z,86.90
2023-06-09T00:24:19.815Z,86.90
2023-06-09T00:25:19.801Z,87.32
2023-06-09T00:26:19.781Z,86.70
2023-06-09T00:27:19.769Z,87.32
2023-06-09T00:28:19.742Z,87.83
2023-06-09T00:29:19.765Z,87.98
2023-06-09T00:30:33.634Z,88.18
2023-06-09T00:31:20.791Z,87.05
2023-06-09T00:32:19.703Z,88.56
2023-06-09T00:33:19.698Z,88.24
2023-06-09T00:34:19.672Z,88.70
2023-06-09T00:35:19.670Z,87.77
2023-06-09T00:36:19.673Z,88.45
2023-06-09T00:37:19.684Z,88.14
2023-06-09T00:38:19.651Z,87.32
2023-06-09T00:39:19.632Z,88.14
2023-06-09T00:40:19.619Z,87.99
2023-06-09T00:41:19.625Z,86.24
2023-06-09T00:42:19.602Z,86.87
2023-06-09T00:43:19.631Z,86.66
2023-06-09T00:44:19.525Z,85.73
2023-06-09T00:45:19.562Z,86.45
2023-06-09T00:46:19.619Z,86.66
2023-06-09T00:47:19.545Z,86.97
2023-06-09T00:48:19.521Z,86.87
2023-06-09T00:49:19.596Z,87.59
2023-06-09T00:50:19.501Z,87.11
2023-06-09T00:51:19.516Z,87.32
2023-06-09T00:52:19.484Z,86.18
2023-06-09T00:53:19.469Z,87.32
2023-06-09T00:54:19.488Z,88.56
2023-06-09T00:55:20.325Z,88.24
2023-06-09T00:56:19.468Z,89.17
2023-06-09T00:57:19.462Z,87.42
2023-06-09T00:58:19.463Z,88.90
2023-06-09T00:59:19.434Z,88.70
2023-06-09T01:00:19.418Z,89.32
2023-06-09T01:01:19.473Z,88.49
2023-06-09T01:02:19.362Z,89.01
2023-06-09T01:03:19.410Z,89.69
2023-06-09T01:04:19.364Z,88.70
2023-06-09T01:05:19.348Z,89.52
2023-06-09T01:06:19.341Z,90.04
2023-06-09T01:07:19.294Z,89.83
2023-06-09T01:08:19.317Z,90.35
2023-06-09T01:09:19.309Z,90.86
2023-06-09T01:10:19.315Z,90.04
2023-06-09T01:11:19.240Z,90.76
2023-06-09T01:12:19.260Z,90.76
2023-06-09T01:13:19.202Z,88.80
2023-06-09T01:14:19.189Z,88.59
2023-06-09T01:15:19.201Z,89.01
2023-06-09T01:16:19.222Z,89.22
2023-06-09T01:17:19.265Z,89.94
2023-06-09T01:18:19.199Z,89.32
2023-06-09T01:19:19.137Z,89.42
2023-06-09T01:20:19.146Z,89.83
2023-06-09T01:21:19.153Z,90.25
2023-06-09T01:22:19.124Z,89.62
2023-06-09T01:23:19.123Z,89.32
2023-06-09T01:24:19.163Z,88.18
2023-06-09T01:25:19.208Z,88.18
2023-06-09T01:26:19.079Z,86.53
2023-06-09T01:27:19.068Z,88.24
2023-06-09T01:28:19.058Z,87.63
2023-06-09T01:29:19.036Z,86.90
2023-06-09T01:30:19.092Z,86.90
2023-06-09T01:31:19.095Z,88.35
2023-06-09T01:32:19.190Z,88.65
2023-06-09T01:33:19.008Z,86.60
2023-06-09T01:34:19.015Z,87.32
2023-06-09T01:35:18.980Z,87.63
2023-06-09T01:36:19.053Z,87.52
2023-06-09T01:37:18.978Z,89.52
2023-06-09T01:38:18.970Z,89.83
2023-06-09T01:39:18.961Z,89.52
2023-06-09T01:40:18.953Z,87.77
2023-06-09T01:41:18.950Z,89.01
2023-06-09T01:42:18.954Z,89.01
2023-06-09T01:43:18.934Z,89.42
2023-06-09T01:44:18.926Z,88.80
2023-06-09T01:45:18.895Z,88.39
2023-06-09T01:46:18.990Z,86.74
2023-06-09T01:47:18.876Z,87.15
2023-06-09T01:48:18.876Z,87.15
2023-06-09T01:49:18.844Z,87.87
2023-06-09T01:50:18.834Z,87.15
2023-06-09T01:51:18.836Z,87.05
2023-06-09T01:52:18.814Z,88.49
2023-06-09T01:53:18.792Z,86.94
2023-06-09T01:54:19.627Z,87.98
2023-06-09T01:55:18.778Z,89.42
2023-06-09T01:56:18.771Z,87.77
2023-06-09T01:57:18.766Z,87.05
2023-06-09T01:58:18.774Z,86.53
2023-06-09T01:59:18.764Z,86.53
2023-06-09T02:00:18.789Z,87.35
2023-06-09T02:01:18.778Z,87.56
2023-06-09T02:02:18.719Z,86.74
2023-06-09T02:03:18.843Z,88.49
2023-06-09T02:04:18.738Z,88.18
2023-06-09T02:05:18.707Z,88.95
2023-06-09T02:06:18.736Z,89.98
2023-06-09T02:07:18.646Z,91.56
2023-06-09T02:08:18.643Z,92.44
2023-06-09T02:09:18.658Z,92.99
2023-06-09T02:10:18.620Z,91.55
2023-06-09T02:11:18.620Z,93.10
2023-06-09T02:12:18.662Z,93.72
2023-06-09T02:13:18.599Z,94.34
2023-06-09T02:14:18.598Z,94.69
2023-06-09T02:15:18.585Z,94.07
2023-06-09T02:16:18.613Z,94.07
2023-06-09T02:17:18.575Z,95.21
2023-06-09T02:18:18.641Z,96.66
2023-06-09T02:19:18.593Z,97.63
2023-06-09T02:20:18.522Z,98.15
2023-06-09T02:21:18.536Z,96.39
2023-06-09T02:22:18.520Z,96.08
2023-06-09T02:23:18.502Z,95.77
2023-06-09T02:24:18.662Z,96.19
2023-06-09T02:25:18.520Z,96.76
2023-06-09T02:26:18.466Z,95.94
2023-06-09T02:27:18.483Z,95.73
2023-06-09T02:28:18.465Z,96.97
2023-06-09T02:29:18.523Z,97.01
2023-06-09T02:30:18.493Z,95.87
2023-06-09T02:31:18.481Z,96.70
2023-06-09T02:32:18.403Z,95.46
2023-06-09T02:33:18.407Z,94.69
2023-06-09T02:34:18.400Z,95.31
2023-06-09T02:35:18.367Z,95.83
2023-06-09T02:36:18.411Z,95.42
2023-06-09T02:37:18.388Z,93.76
2023-06-09T02:38:18.355Z,95.21
2023-06-09T02:39:18.366Z,94.69
2023-06-09T02:40:18.366Z,95.62
2023-06-09T02:41:18.338Z,94.69
2023-06-09T02:42:18.351Z,95.31
2023-06-09T02:43:18.321Z,95.73
2023-06-09T02:44:18.299Z,94.59
2023-06-09T02:45:18.287Z,95.31
2023-06-09T02:46:18.299Z,94.38
2023-06-09T02:47:18.294Z,94.48
2023-06-09T02:48:18.321Z,94.48
2023-06-09T02:49:18.258Z,94.07
2023-06-09T02:50:18.248Z,93.87
2023-06-09T02:51:18.219Z,93.35
2023-06-09T02:52:18.215Z,93.24
2023-06-09T02:53:18.270Z,92.63
2023-06-09T02:54:18.708Z,92.72
2023-06-09T02:55:18.228Z,92.93
2023-06-09T02:56:18.229Z,92.32
2023-06-09T02:57:18.178Z,92.83
2023-06-09T02:58:18.170Z,92.83
2023-06-09T02:59:18.160Z,93.24
2023-06-09T03:00:18.268Z,93.45
2023-06-09T03:01:18.185Z,92.42
2023-06-09T03:02:18.093Z,93.45
2023-06-09T03:03:18.195Z,93.66
2023-06-09T03:04:18.178Z,93.55
2023-06-09T03:05:18.053Z,93.66
2023-06-09T03:06:18.154Z,93.14
2023-06-09T03:07:18.063Z,93.14
2023-06-09T03:08:18.040Z,93.76
2023-06-09T03:09:18.046Z,93.35
2023-06-09T03:10:18.035Z,92.72
2023-06-09T03:11:18.029Z,93.55
2023-06-09T03:12:18.045Z,93.55
2023-06-09T03:13:17.993Z,92.93
2023-06-09T03:14:17.992Z,93.14
2023-06-09T03:15:17.995Z,93.14
2023-06-09T03:16:17.985Z,93.14
2023-06-09T03:17:17.988Z,93.35
2023-06-09T03:18:17.989Z,92.89
2023-06-09T03:19:17.953Z,93.14
2023-06-09T03:20:17.918Z,93.04
2023-06-09T03:21:17.919Z,93.24
2023-06-09T03:22:17.913Z,93.45
2023-06-09T03:23:17.880Z,92.72
2023-06-09T03:24:18.079Z,93.24
2023-06-09T03:25:17.916Z,92.07
2023-06-09T03:26:17.879Z,92.89
2023-06-09T03:27:17.839Z,93.10
2023-06-09T03:28:17.823Z,93.10
2023-06-09T03:29:17.827Z,92.99
2023-06-09T03:30:17.903Z,92.27
2023-06-09T03:31:17.937Z,92.48
2023-06-09T03:32:17.832Z,92.99
2023-06-09T03:33:17.815Z,93.26
2023-06-09T03:34:17.780Z,93.05
2023-06-09T03:35:17.809Z,92.95
2023-06-09T03:36:17.805Z,93.26
2023-06-09T03:37:17.761Z,93.37
2023-06-09T03:38:17.761Z,92.95
2023-06-09T03:39:17.764Z,92.95
2023-06-09T03:40:17.727Z,92.74
2023-06-09T03:41:17.735Z,92.74
2023-06-09T03:42:17.754Z,92.80
2023-06-09T03:43:17.700Z,92.80
2023-06-09T03:44:17.687Z,93.12
2023-06-09T03:45:17.690Z,93.12
2023-06-09T03:46:17.690Z,93.22
2023-06-09T03:47:17.639Z,93.32
2023-06-09T03:48:17.692Z,93.01
2023-06-09T03:49:17.620Z,93.32
2023-06-09T03:50:17.659Z,93.43
2023-06-09T03:51:17.624Z,93.32
2023-06-09T03:52:17.605Z,93.32
2023-06-09T03:53:17.614Z,92.97
2023-06-09T03:54:17.644Z,93.07
2023-06-09T03:55:17.567Z,93.07
2023-06-09T03:56:17.564Z,93.38
2023-06-09T03:57:17.579Z,93.18
2023-06-09T03:58:17.544Z,92.86
2023-06-09T03:59:17.536Z,92.76
2023-06-09T04:00:17.638Z,92.93
2023-06-09T04:01:17.530Z,92.82
2023-06-09T04:02:17.551Z,92.72
2023-06-09T04:03:17.553Z,92.93
2023-06-09T04:04:17.512Z,92.51
2023-06-09T04:05:17.497Z,92.57
2023-06-09T04:06:17.550Z,93.09
2023-06-09T04:07:17.486Z,92.99
2023-06-09T04:08:17.451Z,93.19
2023-06-09T04:09:17.459Z,92.47
2023-06-09T04:10:17.409Z,91.60
2023-06-09T04:11:17.420Z,91.91
2023-06-09T04:12:17.550Z,92.02
2023-06-09T04:13:17.391Z,91.81
2023-06-09T04:14:17.432Z,92.59
2023-06-09T04:15:17.390Z,92.90
2023-06-09T04:16:17.462Z,92.59
2023-06-09T04:17:17.346Z,92.59
2023-06-09T04:18:17.503Z,93.01
2023-06-09T04:19:17.328Z,93.16
2023-06-09T04:20:17.324Z,93.88
2023-06-09T04:21:17.297Z,93.79
2023-06-09T04:22:17.306Z,93.58
2023-06-09T04:23:17.301Z,93.64
2023-06-09T04:24:17.439Z,93.23
2023-06-09T04:25:17.268Z,93.54
2023-06-09T04:26:17.343Z,93.43
2023-06-09T04:27:17.282Z,92.57
2023-06-09T04:28:17.257Z,91.44
2023-06-09T04:29:17.279Z,91.64
2023-06-09T04:30:17.360Z,88.96
2023-06-09T04:31:17.203Z,90.16
2023-06-09T04:32:17.263Z,88.72
2023-06-09T04:33:17.199Z,90.47
2023-06-09T04:34:17.179Z,89.40
2023-06-09T04:35:17.263Z,89.09
2023-06-09T04:36:17.279Z,88.06
2023-06-09T04:37:17.150Z,87.30
2023-06-09T04:38:17.133Z,86.68
2023-06-09T04:39:17.155Z,86.27
2023-06-09T04:40:17.111Z,85.25
2023-06-09T04:41:17.186Z,84.74
2023-06-09T04:42:17.150Z,84.63
2023-06-09T04:43:17.139Z,83.98
2023-06-09T04:44:17.075Z,83.87
2023-06-09T04:45:17.048Z,83.56
2023-06-09T04:46:17.093Z,83.67
2023-06-09T04:47:17.053Z,82.40
2023-06-09T04:48:17.467Z,83.01
2023-06-09T04:49:17.057Z,80.92
2023-06-09T04:50:17.046Z,82.12
2023-06-09T04:51:16.987Z,77.84
2023-06-09T04:52:17.000Z,76.95
2023-06-09T04:53:16.990Z,74.26
2023-06-09T04:54:17.035Z,75.92
2023-06-09T04:55:17.062Z,73.60
2023-06-09T04:56:16.960Z,70.92
2023-06-09T04:57:16.989Z,69.86
2023-06-09T04:58:16.947Z,68.10
2023-06-09T04:59:16.978Z,69.90
2023-06-09T05:00:16.996Z,67.05
2023-06-09T05:01:16.930Z,66.74
2023-06-09T05:02:16.903Z,67.32
2023-06-09T05:03:17.201Z,65.59
2023-06-09T05:04:16.868Z,65.86
2023-06-09T05:05:16.974Z,64.84
2023-06-09T05:06:16.889Z,64.72
2023-06-09T05:07:16.826Z,66.55
2023-06-09T05:08:16.861Z,66.52
2023-06-09T05:09:16.889Z,62.24
2023-06-09T05:10:16.814Z,62.48
2023-06-09T05:11:16.797Z,66.52
2023-06-09T05:12:16.844Z,62.24
2023-06-09T05:13:16.804Z,62.11
2023-06-09T05:14:16.792Z,64.76
2023-06-09T05:15:16.822Z,62.90
2023-06-09T05:16:16.871Z,60.46
2023-06-09T05:17:16.812Z,64.42
2023-06-09T05:18:16.780Z,65.03
2023-06-09T05:19:16.787Z,62.26
2023-06-09T05:20:16.721Z,61.04
2023-06-09T05:21:16.704Z,60.43
2023-06-09T05:22:16.689Z,59.75
2023-06-09T05:23:16.750Z,59.41
2023-06-09T05:24:16.812Z,62.84
2023-06-09T05:25:18.001Z,57.59
2023-06-09T05:26:16.631Z,61.11
2023-06-09T05:27:16.623Z,58.17
2023-06-09T05:28:16.676Z,58.50
2023-06-09T05:29:16.599Z,60.36
2023-06-09T05:30:16.664Z,58.22
2023-06-09T05:31:16.608Z,58.65
2023-06-09T05:32:16.579Z,63.00
2023-06-09T05:33:16.578Z,62.97
2023-06-09T05:34:16.561Z,59.95
2023-06-09T05:35:16.537Z,61.34
2023-06-09T05:36:16.592Z,61.44
2023-06-09T05:37:16.516Z,62.02
2023-06-09T05:38:16.541Z,60.10
2023-06-09T05:39:16.531Z,64.84
2023-06-09T05:40:19.282Z,63.39
2023-06-09T05:41:16.506Z,61.20
2023-06-09T05:42:16.500Z,57.04
2023-06-09T05:43:16.483Z,56.59
2023-06-09T05:44:16.490Z,59.61
2023-06-09T05:45:16.537Z,63.26
2023-06-09T05:46:16.444Z,61.40
2023-06-09T05:47:16.420Z,54.31
2023-06-09T05:48:16.459Z,58.01
2023-06-09T05:49:16.411Z,59.74
2023-06-09T05:50:16.386Z,60.55
2023-06-09T05:51:16.382Z,60.93
2023-06-09T05:52:16.374Z,56.09
2023-06-09T05:53:16.358Z,56.46
2023-06-09T05:54:16.384Z,57.81
2023-06-09T05:55:16.331Z,60.58
2023-06-09T05:56:16.348Z,59.72
2023-06-09T05:57:16.386Z,59.84
2023-06-09T05:58:16.324Z,59.34
2023-06-09T05:59:16.289Z,60.25
2023-06-09T06:00:16.409Z,59.44
2023-06-09T06:01:18.248Z,57.81
2023-06-09T06:02:16.334Z,58.94
2023-06-09T06:03:16.375Z,57.99
2023-06-09T06:04:16.338Z,59.34
2023-06-09T06:05:16.280Z,60.76
2023-06-09T06:06:16.280Z,61.85
2023-06-09T06:07:16.227Z,61.01
2023-06-09T06:08:16.202Z,62.60
2023-06-09T06:09:16.189Z,62.34
2023-06-09T06:10:16.192Z,58.67
2023-06-09T06:11:16.159Z,57.86
2023-06-09T06:12:16.277Z,58.23
2023-06-09T06:13:16.153Z,55.47
2023-06-09T06:14:16.213Z,58.15
2023-06-09T06:15:16.139Z,53.07
2023-06-09T06:16:16.150Z,52.87
2023-06-09T06:17:16.125Z,53.14
2023-06-09T06:18:16.164Z,51.55
2023-06-09T06:19:17.750Z,51.76
2023-06-09T06:20:16.161Z,52.97
2023-06-09T06:21:16.085Z,52.26
2023-06-09T06:22:16.047Z,51.86
2023-06-09T06:23:16.053Z,51.43
2023-06-09T06:24:16.190Z,49.89
2023-06-09T06:25:16.055Z,48.17
2023-06-09T06:26:16.019Z,48.10
2023-06-09T06:27:16.003Z,48.30
2023-06-09T06:28:16.017Z,48.22
2023-06-09T06:29:15.961Z,50.62
2023-06-09T06:30:16.106Z,51.81
2023-06-09T06:31:15.989Z,50.98
2023-06-09T06:32:15.939Z,47.04
2023-06-09T06:33:15.938Z,46.78
2023-06-09T06:34:15.957Z,51.30
2023-06-09T06:35:15.917Z,45.53
2023-06-09T06:36:15.974Z,49.16
2023-06-09T06:37:15.905Z,47.82
2023-06-09T06:38:16.038Z,48.63
2023-06-09T06:39:15.883Z,47.14
2023-06-09T06:40:15.928Z,51.07
2023-06-09T06:41:15.852Z,49.74
2023-06-09T06:42:15.941Z,47.32
2023-06-09T06:43:15.830Z,49.56
2023-06-09T06:44:15.841Z,51.28
2023-06-09T06:45:15.819Z,49.76
2023-06-09T06:46:15.837Z,52.97
2023-06-09T06:47:16.005Z,48.43
2023-06-09T06:48:15.831Z,47.80
2023-06-09T06:49:15.770Z,48.30
2023-06-09T06:50:15.771Z,49.90
2023-06-09T06:51:15.762Z,48.38
2023-06-09T06:52:15.753Z,48.76
2023-06-09T06:53:15.728Z,45.94
2023-06-09T06:54:15.770Z,48.56
2023-06-09T06:55:15.681Z,45.94
2023-06-09T06:56:15.696Z,45.03
2023-06-09T06:57:15.676Z,45.74
2023-06-09T06:58:15.690Z,43.80
2023-06-09T06:59:15.679Z,47.33
2023-06-09T07:00:15.736Z,46.12
2023-06-09T07:01:15.671Z,43.79
2023-06-09T07:02:15.636Z,44.87
2023-06-09T07:03:15.841Z,43.46
2023-06-09T07:04:15.659Z,42.74
2023-06-09T07:05:15.612Z,42.03
2023-06-09T07:06:15.645Z,42.19
2023-06-09T07:07:15.600Z,44.21
2023-06-09T07:08:15.565Z,44.51
2023-06-09T07:09:15.557Z,43.80
2023-06-09T07:10:15.636Z,43.88
2023-06-09T07:11:15.534Z,42.13
2023-06-09T07:12:15.565Z,41.65
2023-06-09T07:13:15.500Z,38.65
2023-06-09T07:14:16.971Z,42.58
2023-06-09T07:15:15.479Z,41.85
2023-06-09T07:16:15.472Z,39.54
2023-06-09T07:17:15.575Z,39.94
2023-06-09T07:18:15.680Z,43.06
2023-06-09T07:19:15.444Z,44.15
2023-06-09T07:20:15.445Z,42.41
2023-06-09T07:21:15.435Z,41.11
2023-06-09T07:22:15.463Z,41.39
2023-06-09T07:23:15.424Z,39.69
2023-06-09T07:24:15.605Z,41.49
2023-06-09T07:25:15.404Z,40.91
2023-06-09T07:26:15.381Z,42.74
2023-06-09T07:27:15.394Z,43.62
2023-06-09T07:28:15.400Z,43.00
2023-06-09T07:29:15.382Z,41.57
2023-06-09T07:30:15.378Z,42.25
2023-06-09T07:31:15.419Z,40.13
2023-06-09T07:32:15.341Z,41.47
2023-06-09T07:33:15.353Z,39.16
2023-06-09T07:34:15.360Z,41.83
2023-06-09T07:35:15.317Z,41.75
2023-06-09T07:36:16.113Z,44.55
2023-06-09T07:37:15.279Z,43.52
2023-06-09T07:38:15.247Z,41.27
2023-06-09T07:39:15.277Z,37.85
2023-06-09T07:40:19.982Z,40.87
2023-06-09T07:41:16.267Z,38.64
2023-06-09T07:42:15.199Z,41.75
2023-06-09T07:43:15.205Z,38.74
2023-06-09T07:44:15.190Z,39.54
2023-06-09T07:45:15.222Z,35.43
2023-06-09T07:46:15.373Z,39.84
2023-06-09T07:47:15.207Z,38.12
2023-06-09T07:48:15.171Z,38.22
2023-06-09T07:49:15.160Z,40.23
2023-06-09T07:50:15.151Z,39.11
2023-06-09T07:51:15.143Z,39.59
2023-06-09T07:52:23.963Z,34.29
2023-06-09T07:53:16.101Z,38.90
2023-06-09T07:54:15.090Z,39.11
2023-06-09T07:55:16.073Z,39.79
2023-06-09T07:56:15.043Z,39.71
2023-06-09T07:57:15.074Z,39.89
2023-06-09T07:58:15.041Z,41.01
2023-06-09T07:59:15.086Z,42.19
2023-06-09T08:00:15.303Z,41.49
2023-06-09T08:01:15.029Z,43.08
2023-06-09T08:02:15.029Z,39.25
2023-06-09T08:03:15.167Z,38.18
2023-06-09T08:04:15.180Z,38.72
2023-06-09T08:05:15.088Z,40.75
2023-06-09T08:06:14.966Z,40.43
2023-06-09T08:07:14.961Z,38.34
2023-06-09T08:08:14.950Z,39.95
2023-06-09T08:09:14.917Z,39.11
2023-06-09T08:10:14.965Z,37.28
2023-06-09T08:11:14.942Z,39.67
2023-06-09T08:12:14.898Z,38.85
2023-06-09T08:13:14.913Z,37.85
2023-06-09T08:14:14.950Z,38.05
2023-06-09T08:15:14.903Z,40.57
2023-06-09T08:16:14.920Z,40.63
2023-06-09T08:17:14.911Z,41.71
2023-06-09T08:18:14.917Z,36.78
2023-06-09T08:19:14.837Z,40.37
2023-06-09T08:20:14.824Z,40.35
2023-06-09T08:21:14.820Z,38.83
2023-06-09T08:22:14.804Z,39.41
2023-06-09T08:23:14.901Z,37.81
2023-06-09T08:24:14.841Z,38.31
2023-06-09T08:25:14.774Z,38.70
2023-06-09T08:26:14.762Z,36.60
2023-06-09T08:27:14.776Z,33.54
2023-06-09T08:28:14.767Z,38.81
2023-06-09T08:29:14.750Z,41.41
2023-06-09T08:30:14.741Z,37.96
2023-06-09T08:31:14.748Z,36.85
2023-06-09T08:32:14.718Z,36.23
2023-06-09T08:33:14.719Z,37.71
2023-06-09T08:34:14.668Z,37.79
2023-06-09T08:35:14.706Z,37.10
2023-06-09T08:36:14.644Z,37.58
2023-06-09T08:37:14.648Z,36.16
2023-06-09T08:38:14.613Z,37.40
2023-06-09T08:39:14.602Z,37.58
2023-06-09T08:40:14.609Z,36.26
2023-06-09T08:41:14.635Z,34.96
2023-06-09T08:42:14.583Z,34.86
2023-06-09T08:43:14.612Z,36.04
2023-06-09T08:44:14.560Z,35.63
2023-06-09T08:45:14.567Z,35.23
2023-06-09T08:46:14.652Z,36.91
2023-06-09T08:47:14.572Z,36.89
2023-06-09T08:48:14.505Z,34.68
2023-06-09T08:49:14.514Z,35.79
2023-06-09T08:50:14.486Z,33.20
2023-06-09T08:51:14.502Z,34.00
2023-06-09T08:52:14.469Z,33.42
2023-06-09T08:53:14.514Z,34.63
2023-06-09T08:54:14.460Z,34.53
2023-06-09T08:55:14.464Z,33.73
2023-06-09T08:56:14.433Z,32.03
2023-06-09T08:57:14.450Z,33.28
2023-06-09T08:58:14.420Z,37.83
2023-06-09T08:59:14.441Z,38.71
2023-06-09T09:00:14.386Z,37.99
2023-06-09T09:01:14.424Z,37.77
2023-06-09T09:02:14.368Z,35.78
2023-06-09T09:03:14.450Z,36.06
2023-06-09T09:04:14.410Z,37.42
2023-06-09T09:05:14.364Z,35.42
2023-06-09T09:06:14.339Z,34.51
2023-06-09T09:07:14.330Z,34.69
2023-06-09T09:08:14.305Z,33.01
2023-06-09T09:09:14.312Z,33.00
2023-06-09T09:10:14.285Z,32.90
2023-06-09T09:11:14.328Z,32.60
2023-06-09T09:12:14.299Z,32.20
2023-06-09T09:13:14.368Z,34.73
2023-06-09T09:14:14.244Z,33.84
2023-06-09T09:15:14.231Z,36.26
2023-06-09T09:16:14.259Z,34.44
2023-06-09T09:17:14.340Z,33.93
2023-06-09T09:18:14.224Z,33.80
2023-06-09T09:19:14.195Z,34.08
2023-06-09T09:20:14.185Z,33.56
2023-06-09T09:21:14.173Z,33.67
2023-06-09T09:22:14.187Z,31.67
2023-06-09T09:23:14.219Z,34.16
2023-06-09T09:24:14.303Z,33.97
2023-06-09T09:25:14.127Z,31.27
2023-06-09T09:26:14.122Z,32.87
2023-06-09T09:27:14.118Z,34.46
2023-06-09T09:28:14.085Z,34.89
2023-06-09T09:29:14.117Z,34.39
2023-06-09T09:30:14.086Z,32.80
2023-06-09T09:31:14.091Z,33.38
2023-06-09T09:32:14.055Z,32.77
2023-06-09T09:33:14.122Z,33.53
2023-06-09T09:34:14.053Z,34.81
2023-06-09T09:35:14.065Z,33.81
2023-06-09T09:36:14.028Z,35.49
2023-06-09T09:37:14.027Z,33.18
2023-06-09T09:38:14.057Z,34.01
2023-06-09T09:39:14.176Z,36.09
2023-06-09T09:40:14.027Z,36.37
2023-06-09T09:41:14.034Z,33.86
2023-06-09T09:42:14.043Z,35.29
2023-06-09T09:43:13.954Z,34.44
2023-06-09T09:44:14.044Z,35.05
2023-06-09T09:45:13.916Z,34.13
2023-06-09T09:46:13.967Z,33.70
2023-06-09T09:47:13.997Z,34.38
2023-06-09T09:48:13.889Z,34.28
2023-06-09T09:49:13.924Z,34.06
2023-06-09T09:50:13.868Z,34.15
2023-06-09T09:51:13.853Z,32.75
2023-06-09T09:52:13.851Z,34.36
2023-06-09T09:53:13.904Z,31.99
2023-06-09T09:54:13.830Z,33.58
2023-06-09T09:55:13.832Z,34.45
2023-06-09T09:56:13.802Z,35.14
2023-06-09T09:57:13.792Z,33.81
2023-06-09T09:58:13.772Z,33.20
2023-06-09T09:59:13.823Z,32.59
2023-06-09T10:00:13.978Z,30.13
2023-06-09T10:01:13.773Z,35.46
2023-06-09T10:02:13.741Z,34.75
2023-06-09T10:03:13.835Z,33.45
2023-06-09T10:04:13.808Z,29.98
2023-06-09T10:05:13.751Z,33.63
2023-06-09T10:06:13.699Z,34.31
2023-06-09T10:07:13.695Z,33.66
2023-06-09T10:08:16.281Z,34.24
2023-06-09T10:09:13.671Z,36.35
2023-06-09T10:10:13.660Z,37.43
2023-06-09T10:11:13.679Z,36.69
2023-06-09T10:12:13.638Z,37.46
2023-06-09T10:13:13.631Z,36.02
2023-06-09T10:14:13.627Z,35.61
2023-06-09T10:15:13.629Z,37.79
2023-06-09T10:16:13.647Z,35.59
2023-06-09T10:17:13.673Z,35.46
2023-06-09T10:18:13.590Z,35.24
2023-06-09T10:19:13.583Z,33.23
2023-06-09T10:20:13.577Z,32.67
2023-06-09T10:21:13.698Z,33.61
2023-06-09T10:22:13.563Z,36.69
2023-06-09T10:23:13.579Z,37.99
2023-06-09T10:24:13.582Z,37.66
2023-06-09T10:25:13.515Z,36.32
2023-06-09T10:26:13.499Z,35.31
2023-06-09T10:27:13.496Z,35.68
2023-06-09T10:28:13.522Z,34.45
2023-06-09T10:29:13.498Z,34.23
2023-06-09T10:30:13.467Z,32.93
2023-06-09T10:31:13.451Z,30.46
2023-06-09T10:32:13.583Z,33.55
2023-06-09T10:33:13.460Z,33.04
2023-06-09T10:34:13.418Z,32.53
2023-06-09T10:35:13.459Z,32.62
2023-06-09T10:36:13.696Z,32.62
2023-06-09T10:37:13.388Z,32.84
2023-06-09T10:38:13.377Z,31.94
2023-06-09T10:39:13.369Z,33.25
2023-06-09T10:40:13.373Z,29.41
2023-06-09T10:41:13.455Z,34.01
2023-06-09T10:42:13.338Z,37.08
2023-06-09T10:43:13.336Z,34.38
2023-06-09T10:44:13.320Z,34.27
2023-06-09T10:45:13.381Z,32.89
2023-06-09T10:46:13.381Z,36.39
2023-06-09T10:47:13.322Z,30.74
2023-06-09T10:48:13.314Z,33.91
2023-06-09T10:49:13.267Z,31.90
2023-06-09T10:50:13.261Z,33.38
2023-06-09T10:51:13.257Z,33.95
2023-06-09T10:52:13.235Z,33.85
2023-06-09T10:53:14.018Z,33.93
2023-06-09T10:54:13.234Z,32.82
2023-06-09T10:55:13.213Z,31.73
2023-06-09T10:56:13.197Z,30.22
2023-06-09T10:57:13.184Z,30.70
2023-06-09T10:58:13.174Z,29.37
2023-06-09T10:59:13.229Z,33.05
2023-06-09T11:00:13.692Z,34.13
2023-06-09T11:01:13.176Z,35.80
2023-06-09T11:02:13.129Z,33.78
2023-06-09T11:03:13.166Z,29.72
2023-06-09T11:04:13.152Z,31.32
2023-06-09T11:05:13.138Z,31.81
2023-06-09T11:06:13.089Z,31.20
2023-06-09T11:07:13.126Z,32.97
2023-06-09T11:08:13.074Z,32.86
2023-06-09T11:09:13.065Z,31.95
2023-06-09T11:10:13.107Z,31.27
2023-06-09T11:11:13.064Z,31.75
2023-06-09T11:12:13.025Z,30.87
2023-06-09T11:13:13.028Z,31.99
2023-06-09T11:14:13.116Z,32.97
2023-06-09T11:15:13.009Z,31.13
2023-06-09T11:16:12.988Z,34.01
2023-06-09T11:17:13.093Z,32.41
2023-06-09T11:18:13.097Z,32.49
2023-06-09T11:19:12.960Z,32.38
2023-06-09T11:20:13.502Z,31.77
2023-06-09T11:21:12.932Z,31.57
2023-06-09T11:22:12.932Z,28.52
2023-06-09T11:23:12.946Z,30.62
2023-06-09T11:24:13.011Z,29.43
2023-06-09T11:25:12.899Z,30.42
2023-06-09T11:26:12.901Z,30.02
2023-06-09T11:27:12.870Z,30.22
2023-06-09T11:28:12.866Z,30.42
2023-06-09T11:29:12.909Z,30.70
2023-06-09T11:30:12.968Z,30.90
2023-06-09T11:31:12.865Z,30.29
2023-06-09T11:32:13.017Z,29.20
2023-06-09T11:33:12.831Z,29.10
2023-06-09T11:34:12.809Z,28.70
2023-06-09T11:35:12.830Z,29.11
2023-06-09T11:36:12.802Z,30.22
2023-06-09T11:37:12.780Z,31.03
2023-06-09T11:38:12.798Z,31.41
2023-06-09T11:39:12.745Z,29.91
2023-06-09T11:40:12.808Z,28.97
2023-06-09T11:41:12.756Z,30.38
2023-06-09T11:42:12.729Z,31.56
2023-06-09T11:43:12.727Z,31.96
2023-06-09T11:44:12.714Z,29.65
2023-06-09T11:45:12.697Z,29.44
2023-06-09T11:46:12.716Z,28.73
2023-06-09T11:47:12.705Z,29.14
2023-06-09T11:48:12.751Z,28.44
2023-06-09T11:49:12.649Z,27.55
2023-06-09T11:50:12.698Z,29.14
2023-06-09T11:51:12.652Z,29.14
2023-06-09T11:52:12.629Z,30.42
2023-06-09T11:53:12.632Z,30.32
2023-06-09T11:54:12.605Z,29.52
2023-06-09T11:55:12.596Z,28.02
2023-06-09T11:56:12.598Z,28.72
2023-06-09T11:57:12.589Z,28.42
2023-06-09T11:58:12.566Z,27.87
2023-06-09T11:59:12.582Z,29.24
2023-06-09T12:00:12.539Z,32.83
2023-06-09T12:01:12.533Z,32.12
2023-06-09T12:02:12.603Z,31.59
2023-06-09T12:03:12.583Z,31.77
2023-06-09T12:04:12.521Z,29.17
2023-06-09T12:05:12.556Z,29.18
2023-06-09T12:06:12.492Z,30.19
2023-06-09T12:07:12.482Z,31.07
2023-06-09T12:08:12.477Z,33.05
2023-06-09T12:09:12.449Z,31.34
2023-06-09T12:10:12.497Z,30.13
2023-06-09T12:11:12.456Z,30.25
2023-06-09T12:12:12.439Z,31.43
2023-06-09T12:13:12.413Z,30.22
2023-06-09T12:14:12.401Z,29.93
2023-06-09T12:15:12.402Z,28.33
2023-06-09T12:16:12.380Z,29.81
2023-06-09T12:17:12.430Z,29.13
2023-06-09T12:18:12.416Z,29.41
2023-06-09T12:19:12.357Z,29.71
2023-06-09T12:20:12.416Z,29.41
2023-06-09T12:21:12.334Z,28.42
2023-06-09T12:22:12.334Z,29.85
2023-06-09T12:23:12.355Z,31.45
2023-06-09T12:24:12.353Z,28.40
2023-06-09T12:25:12.288Z,31.48
2023-06-09T12:26:12.292Z,28.47
2023-06-09T12:27:12.268Z,29.16
2023-06-09T12:28:12.679Z,29.74
2023-06-09T12:29:12.277Z,29.33
2023-06-09T12:30:12.259Z,29.31
2023-06-09T12:31:12.237Z,29.80
2023-06-09T12:32:12.288Z,26.12
2023-06-09T12:33:12.301Z,27.14
2023-06-09T12:34:12.203Z,27.40
2023-06-09T12:35:12.239Z,29.24
2023-06-09T12:36:12.322Z,29.67
2023-06-09T12:37:12.166Z,31.99
2023-06-09T12:38:12.152Z,32.56
2023-06-09T12:39:12.208Z,33.03
2023-06-09T12:40:12.901Z,30.01
2023-06-09T12:41:12.171Z,28.20
2023-06-09T12:42:12.130Z,28.92
2023-06-09T12:43:12.118Z,31.12
2023-06-09T12:44:12.098Z,32.70
2023-06-09T12:45:12.125Z,32.77
2023-06-09T12:46:12.098Z,33.15
2023-06-09T12:47:12.150Z,30.15
2023-06-09T12:48:12.131Z,31.84
2023-06-09T12:49:12.051Z,31.53
2023-06-09T12:50:12.058Z,32.99
2023-06-09T12:51:12.040Z,32.09
2023-06-09T12:52:12.016Z,29.11